sensor_id;sensor_type;location;lat;lon;timestamp;P1;durP1;ratioP1;P2;durP2;ratioP2
54452;SDS011;40363;52.270;10.546;2022-11-15T00:00:03;12.40;;;8.10;;
54452;SDS011;40363;52.270;10.546;2022-11-15T00:02:30;19.13;;;7.55;;
54452;SDS011;40363;52.270;10.546;2022-11-15T00:04:58;15.75;;;8.13;;
54452;SDS011;40363;52.270;10.546;2022-11-15T00:07:24;16.05;;;7.10;;
54452;SDS011;40363;52.270;10.546;2022-11-15T00:09:51;19.05;;;8.52;;
54452;SDS011;40363;52.270;10.546;2022-11-15T00:12:17;16.42;;;8.57;;
54452;SDS011;40363;52.270;10.546;2022-11-15T00:14:44;14.07;;;7.95;;
54452;SDS011;40363;52.270;10.546;2022-11-15T00:17:11;17.80;;;9.52;;
54452;SDS011;40363;52.270;10.546;2022-11-15T00:19:37;13.10;;;7.90;;
54452;SDS011;40363;52.270;10.546;2022-11-15T00:22:05;13.75;;;7.57;;
54452;SDS011;40363;52.270;10.546;2022-11-15T00:24:31;15.52;;;8.27;;
54452;SDS011;40363;52.270;10.546;2022-11-15T00:26:58;12.30;;;7.05;;
54452;SDS011;40363;52.270;10.546;2022-11-15T00:29:25;12.90;;;7.75;;
54452;SDS011;40363;52.270;10.546;2022-11-15T00:31:52;14.63;;;7.15;;
54452;SDS011;40363;52.270;10.546;2022-11-15T00:34:18;14.05;;;7.82;;
54452;SDS011;40363;52.270;10.546;2022-11-15T00:36:45;13.38;;;7.18;;
54452;SDS011;40363;52.270;10.546;2022-11-15T00:39:13;17.13;;;7.00;;
54452;SDS011;40363;52.270;10.546;2022-11-15T00:41:39;16.15;;;7.63;;
54452;SDS011;40363;52.270;10.546;2022-11-15T00:44:06;11.88;;;7.47;;
54452;SDS011;40363;52.270;10.546;2022-11-15T00:46:32;14.05;;;8.00;;
54452;SDS011;40363;52.270;10.546;2022-11-15T00:48:59;13.43;;;7.72;;
54452;SDS011;40363;52.270;10.546;2022-11-15T00:51:26;14.00;;;7.20;;
54452;SDS011;40363;52.270;10.546;2022-11-15T00:53:52;16.30;;;7.53;;
54452;SDS011;40363;52.270;10.546;2022-11-15T00:56:20;11.07;;;7.25;;
54452;SDS011;40363;52.270;10.546;2022-11-15T00:58:47;12.90;;;7.40;;
54452;SDS011;40363;52.270;10.546;2022-11-15T01:01:14;11.73;;;6.70;;
54452;SDS011;40363;52.270;10.546;2022-11-15T01:03:41;10.32;;;6.43;;
54452;SDS011;40363;52.270;10.546;2022-11-15T01:06:08;15.55;;;8.32;;
54452;SDS011;40363;52.270;10.546;2022-11-15T01:08:35;11.70;;;6.82;;
54452;SDS011;40363;52.270;10.546;2022-11-15T01:11:02;14.98;;;7.82;;
54452;SDS011;40363;52.270;10.546;2022-11-15T01:13:31;13.45;;;7.40;;
54452;SDS011;40363;52.270;10.546;2022-11-15T01:15:58;14.77;;;8.05;;
54452;SDS011;40363;52.270;10.546;2022-11-15T01:18:25;15.80;;;8.75;;
54452;SDS011;40363;52.270;10.546;2022-11-15T01:20:52;16.00;;;8.00;;
54452;SDS011;40363;52.270;10.546;2022-11-15T01:23:18;14.15;;;8.95;;
54452;SDS011;40363;52.270;10.546;2022-11-15T01:25:45;20.85;;;10.38;;
54452;SDS011;40363;52.270;10.546;2022-11-15T01:28:12;15.80;;;7.97;;
54452;SDS011;40363;52.270;10.546;2022-11-15T01:30:39;16.33;;;8.18;;
54452;SDS011;40363;52.270;10.546;2022-11-15T01:33:06;16.25;;;7.88;;
54452;SDS011;40363;52.270;10.546;2022-11-15T01:35:33;11.10;;;7.32;;
54452;SDS011;40363;52.270;10.546;2022-11-15T01:38:04;16.27;;;8.38;;
54452;SDS011;40363;52.270;10.546;2022-11-15T01:40:30;17.17;;;8.55;;
54452;SDS011;40363;52.270;10.546;2022-11-15T01:42:57;14.93;;;8.80;;
54452;SDS011;40363;52.270;10.546;2022-11-15T01:45:23;21.92;;;9.50;;
54452;SDS011;40363;52.270;10.546;2022-11-15T01:47:51;16.00;;;8.32;;
54452;SDS011;40363;52.270;10.546;2022-11-15T01:50:21;15.27;;;7.55;;
54452;SDS011;40363;52.270;10.546;2022-11-15T01:52:52;14.98;;;7.57;;
54452;SDS011;40363;52.270;10.546;2022-11-15T01:55:19;16.92;;;8.23;;
54452;SDS011;40363;52.270;10.546;2022-11-15T01:57:49;15.60;;;8.52;;
54452;SDS011;40363;52.270;10.546;2022-11-15T02:00:17;13.23;;;7.97;;
54452;SDS011;40363;52.270;10.546;2022-11-15T02:02:44;16.65;;;8.27;;
54452;SDS011;40363;52.270;10.546;2022-11-15T02:05:12;14.32;;;8.75;;
54452;SDS011;40363;52.270;10.546;2022-11-15T02:07:39;13.65;;;8.45;;
54452;SDS011;40363;52.270;10.546;2022-11-15T02:10:06;12.57;;;7.88;;
54452;SDS011;40363;52.270;10.546;2022-11-15T02:12:35;18.42;;;10.23;;
54452;SDS011;40363;52.270;10.546;2022-11-15T02:15:02;17.83;;;9.13;;
54452;SDS011;40363;52.270;10.546;2022-11-15T02:17:33;18.65;;;8.80;;
54452;SDS011;40363;52.270;10.546;2022-11-15T02:23:31;14.98;;;8.80;;
54452;SDS011;40363;52.270;10.546;2022-11-15T02:26:30;13.60;;;7.82;;
54452;SDS011;40363;52.270;10.546;2022-11-15T02:29:18;15.83;;;8.47;;
54452;SDS011;40363;52.270;10.546;2022-11-15T02:31:59;12.82;;;8.00;;
54452;SDS011;40363;52.270;10.546;2022-11-15T02:34:33;14.30;;;7.40;;
54452;SDS011;40363;52.270;10.546;2022-11-15T02:37:11;13.60;;;8.43;;
54452;SDS011;40363;52.270;10.546;2022-11-15T02:39:44;15.50;;;7.68;;
54452;SDS011;40363;52.270;10.546;2022-11-15T02:42:17;13.23;;;7.13;;
54452;SDS011;40363;52.270;10.546;2022-11-15T02:45:05;13.70;;;8.82;;
54452;SDS011;40363;52.270;10.546;2022-11-15T02:47:37;13.93;;;6.88;;
54452;SDS011;40363;52.270;10.546;2022-11-15T02:50:10;13.98;;;7.95;;
54452;SDS011;40363;52.270;10.546;2022-11-15T02:52:39;13.75;;;7.93;;
54452;SDS011;40363;52.270;10.546;2022-11-15T02:57:57;14.57;;;8.55;;
54452;SDS011;40363;52.270;10.546;2022-11-15T03:00:34;13.38;;;8.52;;
54452;SDS011;40363;52.270;10.546;2022-11-15T03:03:12;13.98;;;7.50;;
54452;SDS011;40363;52.270;10.546;2022-11-15T03:05:53;13.27;;;7.55;;
54452;SDS011;40363;52.270;10.546;2022-11-15T03:08:29;15.15;;;7.85;;
54452;SDS011;40363;52.270;10.546;2022-11-15T03:11:02;14.95;;;7.90;;
54452;SDS011;40363;52.270;10.546;2022-11-15T03:16:03;12.38;;;7.13;;
54452;SDS011;40363;52.270;10.546;2022-11-15T03:18:34;14.50;;;8.23;;
54452;SDS011;40363;52.270;10.546;2022-11-15T03:21:05;11.02;;;6.45;;
54452;SDS011;40363;52.270;10.546;2022-11-15T03:23:35;11.18;;;6.57;;
54452;SDS011;40363;52.270;10.546;2022-11-15T03:26:03;11.52;;;6.47;;
54452;SDS011;40363;52.270;10.546;2022-11-15T03:28:34;10.95;;;6.65;;
54452;SDS011;40363;52.270;10.546;2022-11-15T03:31:03;13.32;;;6.82;;
54452;SDS011;40363;52.270;10.546;2022-11-15T03:33:54;13.60;;;7.47;;
54452;SDS011;40363;52.270;10.546;2022-11-15T03:36:23;12.25;;;7.32;;
54452;SDS011;40363;52.270;10.546;2022-11-15T03:38:52;12.45;;;6.70;;
54452;SDS011;40363;52.270;10.546;2022-11-15T03:41:22;12.85;;;6.75;;
54452;SDS011;40363;52.270;10.546;2022-11-15T03:43:52;13.45;;;7.05;;
54452;SDS011;40363;52.270;10.546;2022-11-15T03:46:24;13.38;;;6.65;;
54452;SDS011;40363;52.270;10.546;2022-11-15T03:48:56;9.68;;;6.45;;
54452;SDS011;40363;52.270;10.546;2022-11-15T03:51:29;11.77;;;6.18;;
54452;SDS011;40363;52.270;10.546;2022-11-15T03:53:56;9.63;;;6.07;;
54452;SDS011;40363;52.270;10.546;2022-11-15T03:56:22;11.18;;;6.30;;
54452;SDS011;40363;52.270;10.546;2022-11-15T03:58:49;9.07;;;6.25;;
54452;SDS011;40363;52.270;10.546;2022-11-15T04:01:16;12.93;;;6.97;;
54452;SDS011;40363;52.270;10.546;2022-11-15T04:03:42;12.68;;;7.13;;
54452;SDS011;40363;52.270;10.546;2022-11-15T04:06:10;8.48;;;5.88;;
54452;SDS011;40363;52.270;10.546;2022-11-15T04:08:37;13.60;;;7.32;;
54452;SDS011;40363;52.270;10.546;2022-11-15T04:11:03;10.95;;;6.55;;
54452;SDS011;40363;52.270;10.546;2022-11-15T04:13:30;9.52;;;6.75;;
54452;SDS011;40363;52.270;10.546;2022-11-15T04:15:57;10.40;;;6.03;;
54452;SDS011;40363;52.270;10.546;2022-11-15T04:18:23;13.13;;;6.95;;
54452;SDS011;40363;52.270;10.546;2022-11-15T04:20:50;11.50;;;5.82;;
54452;SDS011;40363;52.270;10.546;2022-11-15T04:23:35;10.48;;;5.95;;
54452;SDS011;40363;52.270;10.546;2022-11-15T04:26:27;9.05;;;5.82;;
54452;SDS011;40363;52.270;10.546;2022-11-15T04:28:54;10.98;;;6.45;;
54452;SDS011;40363;52.270;10.546;2022-11-15T04:31:38;11.88;;;6.85;;
54452;SDS011;40363;52.270;10.546;2022-11-15T04:34:05;15.32;;;6.38;;
54452;SDS011;40363;52.270;10.546;2022-11-15T04:36:31;14.50;;;7.05;;
54452;SDS011;40363;52.270;10.546;2022-11-15T04:39:19;9.40;;;6.57;;
54452;SDS011;40363;52.270;10.546;2022-11-15T04:41:46;13.63;;;7.03;;
54452;SDS011;40363;52.270;10.546;2022-11-15T04:44:12;11.18;;;6.30;;
54452;SDS011;40363;52.270;10.546;2022-11-15T04:46:39;11.50;;;6.38;;
54452;SDS011;40363;52.270;10.546;2022-11-15T04:49:05;13.00;;;6.63;;
54452;SDS011;40363;52.270;10.546;2022-11-15T04:51:32;12.13;;;6.88;;
54452;SDS011;40363;52.270;10.546;2022-11-15T04:53:58;10.98;;;6.20;;
54452;SDS011;40363;52.270;10.546;2022-11-15T04:56:26;13.68;;;6.47;;
54452;SDS011;40363;52.270;10.546;2022-11-15T04:58:53;12.20;;;6.60;;
54452;SDS011;40363;52.270;10.546;2022-11-15T05:01:19;13.02;;;7.03;;
54452;SDS011;40363;52.270;10.546;2022-11-15T05:03:46;11.82;;;7.47;;
54452;SDS011;40363;52.270;10.546;2022-11-15T05:06:26;11.20;;;6.35;;
54452;SDS011;40363;52.270;10.546;2022-11-15T05:08:53;12.52;;;6.07;;
54452;SDS011;40363;52.270;10.546;2022-11-15T05:11:20;14.00;;;7.25;;
54452;SDS011;40363;52.270;10.546;2022-11-15T05:13:48;14.35;;;7.00;;
54452;SDS011;40363;52.270;10.546;2022-11-15T05:16:15;13.80;;;7.10;;
54452;SDS011;40363;52.270;10.546;2022-11-15T05:18:42;11.50;;;6.90;;
54452;SDS011;40363;52.270;10.546;2022-11-15T05:21:09;16.65;;;8.68;;
54452;SDS011;40363;52.270;10.546;2022-11-15T05:23:38;13.82;;;6.95;;
54452;SDS011;40363;52.270;10.546;2022-11-15T05:26:06;13.32;;;7.93;;
54452;SDS011;40363;52.270;10.546;2022-11-15T05:28:33;11.13;;;6.28;;
54452;SDS011;40363;52.270;10.546;2022-11-15T05:31:03;13.50;;;6.03;;
54452;SDS011;40363;52.270;10.546;2022-11-15T05:33:30;12.38;;;6.85;;
54452;SDS011;40363;52.270;10.546;2022-11-15T05:35:59;16.88;;;8.15;;
54452;SDS011;40363;52.270;10.546;2022-11-15T05:38:28;15.80;;;7.28;;
54452;SDS011;40363;52.270;10.546;2022-11-15T05:40:55;14.23;;;7.07;;
54452;SDS011;40363;52.270;10.546;2022-11-15T05:43:22;16.90;;;6.55;;
54452;SDS011;40363;52.270;10.546;2022-11-15T05:45:49;16.70;;;8.00;;
54452;SDS011;40363;52.270;10.546;2022-11-15T05:48:18;16.85;;;7.70;;
54452;SDS011;40363;52.270;10.546;2022-11-15T05:50:46;16.25;;;8.25;;
54452;SDS011;40363;52.270;10.546;2022-11-15T05:53:14;15.32;;;7.60;;
54452;SDS011;40363;52.270;10.546;2022-11-15T05:55:44;18.38;;;7.90;;
54452;SDS011;40363;52.270;10.546;2022-11-15T05:58:10;13.60;;;7.13;;
54452;SDS011;40363;52.270;10.546;2022-11-15T06:00:37;17.17;;;8.18;;
54452;SDS011;40363;52.270;10.546;2022-11-15T06:03:04;14.00;;;7.20;;
54452;SDS011;40363;52.270;10.546;2022-11-15T06:05:32;16.25;;;7.05;;
54452;SDS011;40363;52.270;10.546;2022-11-15T06:07:58;13.57;;;7.03;;
54452;SDS011;40363;52.270;10.546;2022-11-15T06:10:25;12.02;;;6.95;;
54452;SDS011;40363;52.270;10.546;2022-11-15T06:12:56;12.75;;;7.00;;
54452;SDS011;40363;52.270;10.546;2022-11-15T06:15:25;12.43;;;6.47;;
54452;SDS011;40363;52.270;10.546;2022-11-15T06:17:52;15.00;;;6.75;;
54452;SDS011;40363;52.270;10.546;2022-11-15T06:20:23;11.25;;;6.32;;
54452;SDS011;40363;52.270;10.546;2022-11-15T06:22:51;11.57;;;6.13;;
54452;SDS011;40363;52.270;10.546;2022-11-15T06:25:23;13.18;;;7.07;;
54452;SDS011;40363;52.270;10.546;2022-11-15T06:27:50;11.63;;;6.18;;
54452;SDS011;40363;52.270;10.546;2022-11-15T06:30:17;15.50;;;7.10;;
54452;SDS011;40363;52.270;10.546;2022-11-15T06:32:44;14.75;;;7.18;;
54452;SDS011;40363;52.270;10.546;2022-11-15T06:35:10;13.55;;;6.75;;
54452;SDS011;40363;52.270;10.546;2022-11-15T06:37:37;13.40;;;6.40;;
54452;SDS011;40363;52.270;10.546;2022-11-15T06:40:06;10.55;;;6.15;;
54452;SDS011;40363;52.270;10.546;2022-11-15T06:42:35;10.90;;;6.38;;
54452;SDS011;40363;52.270;10.546;2022-11-15T06:45:02;11.55;;;6.75;;
54452;SDS011;40363;52.270;10.546;2022-11-15T06:47:29;14.98;;;7.65;;
54452;SDS011;40363;52.270;10.546;2022-11-15T06:49:56;15.15;;;7.10;;
54452;SDS011;40363;52.270;10.546;2022-11-15T06:52:22;12.85;;;6.65;;
54452;SDS011;40363;52.270;10.546;2022-11-15T06:54:49;11.68;;;7.05;;
54452;SDS011;40363;52.270;10.546;2022-11-15T06:57:17;12.68;;;7.45;;
54452;SDS011;40363;52.270;10.546;2022-11-15T06:59:43;17.70;;;7.45;;
54452;SDS011;40363;52.270;10.546;2022-11-15T07:02:11;12.30;;;6.25;;
54452;SDS011;40363;52.270;10.546;2022-11-15T07:04:38;15.27;;;7.78;;
54452;SDS011;40363;52.270;10.546;2022-11-15T07:07:05;13.05;;;7.28;;
54452;SDS011;40363;52.270;10.546;2022-11-15T07:09:32;12.00;;;6.35;;
54452;SDS011;40363;52.270;10.546;2022-11-15T07:11:58;15.32;;;7.07;;
54452;SDS011;40363;52.270;10.546;2022-11-15T07:14:26;14.45;;;6.22;;
54452;SDS011;40363;52.270;10.546;2022-11-15T07:16:53;12.82;;;6.78;;
54452;SDS011;40363;52.270;10.546;2022-11-15T07:19:19;12.43;;;6.72;;
54452;SDS011;40363;52.270;10.546;2022-11-15T07:21:46;15.38;;;7.30;;
54452;SDS011;40363;52.270;10.546;2022-11-15T07:24:13;13.02;;;6.45;;
54452;SDS011;40363;52.270;10.546;2022-11-15T07:26:39;51.25;;;11.38;;
54452;SDS011;40363;52.270;10.546;2022-11-15T07:29:06;86.32;;;18.30;;
54452;SDS011;40363;52.270;10.546;2022-11-15T07:31:34;92.28;;;20.10;;
54452;SDS011;40363;52.270;10.546;2022-11-15T07:34:00;80.47;;;15.40;;
54452;SDS011;40363;52.270;10.546;2022-11-15T07:36:27;49.47;;;11.23;;
54452;SDS011;40363;52.270;10.546;2022-11-15T07:38:54;32.92;;;10.48;;
54452;SDS011;40363;52.270;10.546;2022-11-15T07:41:20;20.40;;;7.45;;
54452;SDS011;40363;52.270;10.546;2022-11-15T07:43:50;17.98;;;7.25;;
54452;SDS011;40363;52.270;10.546;2022-11-15T07:46:17;13.30;;;7.10;;
54452;SDS011;40363;52.270;10.546;2022-11-15T07:48:45;20.85;;;7.78;;
54452;SDS011;40363;52.270;10.546;2022-11-15T07:51:11;15.10;;;7.18;;
54452;SDS011;40363;52.270;10.546;2022-11-15T07:53:39;16.35;;;7.53;;
54452;SDS011;40363;52.270;10.546;2022-11-15T07:56:06;15.75;;;6.60;;
54452;SDS011;40363;52.270;10.546;2022-11-15T07:58:32;11.68;;;5.90;;
54452;SDS011;40363;52.270;10.546;2022-11-15T08:01:01;13.60;;;6.32;;
54452;SDS011;40363;52.270;10.546;2022-11-15T08:03:28;9.63;;;5.82;;
54452;SDS011;40363;52.270;10.546;2022-11-15T08:05:56;12.00;;;6.28;;
54452;SDS011;40363;52.270;10.546;2022-11-15T08:08:23;10.10;;;5.47;;
54452;SDS011;40363;52.270;10.546;2022-11-15T08:10:50;15.43;;;5.72;;
54452;SDS011;40363;52.270;10.546;2022-11-15T08:13:16;10.75;;;5.90;;
54452;SDS011;40363;52.270;10.546;2022-11-15T08:15:43;8.05;;;5.45;;
54452;SDS011;40363;52.270;10.546;2022-11-15T08:18:11;13.10;;;6.20;;
54452;SDS011;40363;52.270;10.546;2022-11-15T08:20:39;7.63;;;4.28;;
54452;SDS011;40363;52.270;10.546;2022-11-15T08:23:08;8.30;;;4.32;;
54452;SDS011;40363;52.270;10.546;2022-11-15T08:25:37;6.07;;;4.22;;
54452;SDS011;40363;52.270;10.546;2022-11-15T08:28:04;14.63;;;4.97;;
54452;SDS011;40363;52.270;10.546;2022-11-15T08:30:34;7.63;;;4.65;;
54452;SDS011;40363;52.270;10.546;2022-11-15T08:33:02;7.57;;;4.30;;
54452;SDS011;40363;52.270;10.546;2022-11-15T08:35:29;7.63;;;4.68;;
54452;SDS011;40363;52.270;10.546;2022-11-15T08:37:56;9.70;;;4.80;;
54452;SDS011;40363;52.270;10.546;2022-11-15T08:40:24;6.55;;;3.83;;
54452;SDS011;40363;52.270;10.546;2022-11-15T08:42:52;7.55;;;4.68;;
54452;SDS011;40363;52.270;10.546;2022-11-15T08:45:19;7.32;;;4.50;;
54452;SDS011;40363;52.270;10.546;2022-11-15T08:47:46;7.28;;;3.83;;
54452;SDS011;40363;52.270;10.546;2022-11-15T08:50:13;8.73;;;4.15;;
54452;SDS011;40363;52.270;10.546;2022-11-15T08:52:39;6.65;;;4.35;;
54452;SDS011;40363;52.270;10.546;2022-11-15T08:55:06;10.20;;;3.60;;
54452;SDS011;40363;52.270;10.546;2022-11-15T08:57:35;7.63;;;3.58;;
54452;SDS011;40363;52.270;10.546;2022-11-15T09:00:02;8.57;;;4.28;;
54452;SDS011;40363;52.270;10.546;2022-11-15T09:02:29;10.10;;;4.00;;
54452;SDS011;40363;52.270;10.546;2022-11-15T09:04:56;8.77;;;4.50;;
54452;SDS011;40363;52.270;10.546;2022-11-15T09:07:23;9.20;;;4.50;;
54452;SDS011;40363;52.270;10.546;2022-11-15T09:09:50;6.50;;;4.03;;
54452;SDS011;40363;52.270;10.546;2022-11-15T09:12:16;11.93;;;5.15;;
54452;SDS011;40363;52.270;10.546;2022-11-15T09:14:44;6.90;;;4.15;;
54452;SDS011;40363;52.270;10.546;2022-11-15T09:17:11;11.13;;;4.75;;
54452;SDS011;40363;52.270;10.546;2022-11-15T09:19:37;8.48;;;4.43;;
54452;SDS011;40363;52.270;10.546;2022-11-15T09:22:05;6.90;;;4.45;;
54452;SDS011;40363;52.270;10.546;2022-11-15T09:24:32;7.63;;;3.65;;
54452;SDS011;40363;52.270;10.546;2022-11-15T09:26:59;6.95;;;4.40;;
54452;SDS011;40363;52.270;10.546;2022-11-15T09:29:26;7.97;;;4.85;;
54452;SDS011;40363;52.270;10.546;2022-11-15T09:31:54;9.23;;;4.35;;
54452;SDS011;40363;52.270;10.546;2022-11-15T09:34:20;8.23;;;4.18;;
54452;SDS011;40363;52.270;10.546;2022-11-15T09:36:47;7.28;;;4.45;;
54452;SDS011;40363;52.270;10.546;2022-11-15T09:39:13;6.93;;;4.30;;
54452;SDS011;40363;52.270;10.546;2022-11-15T09:41:49;9.18;;;5.00;;
54452;SDS011;40363;52.270;10.546;2022-11-15T09:44:32;8.00;;;5.00;;
54452;SDS011;40363;52.270;10.546;2022-11-15T09:50:12;7.07;;;3.90;;
54452;SDS011;40363;52.270;10.546;2022-11-15T09:52:41;6.63;;;4.05;;
54452;SDS011;40363;52.270;10.546;2022-11-15T09:55:10;9.95;;;4.55;;
54452;SDS011;40363;52.270;10.546;2022-11-15T09:57:41;7.82;;;4.57;;
54452;SDS011;40363;52.270;10.546;2022-11-15T10:00:16;10.57;;;4.57;;
54452;SDS011;40363;52.270;10.546;2022-11-15T10:02:49;8.05;;;4.28;;
54452;SDS011;40363;52.270;10.546;2022-11-15T10:05:26;8.70;;;4.57;;
54452;SDS011;40363;52.270;10.546;2022-11-15T10:07:56;10.93;;;4.85;;
54452;SDS011;40363;52.270;10.546;2022-11-15T10:10:29;8.30;;;4.05;;
54452;SDS011;40363;52.270;10.546;2022-11-15T10:13:00;7.03;;;4.25;;
54452;SDS011;40363;52.270;10.546;2022-11-15T10:15:27;6.45;;;4.15;;
54452;SDS011;40363;52.270;10.546;2022-11-15T10:18:01;7.72;;;4.85;;
54452;SDS011;40363;52.270;10.546;2022-11-15T10:20:38;6.68;;;4.15;;
54452;SDS011;40363;52.270;10.546;2022-11-15T10:23:11;6.10;;;3.97;;
54452;SDS011;40363;52.270;10.546;2022-11-15T10:25:39;5.10;;;3.58;;
54452;SDS011;40363;52.270;10.546;2022-11-15T10:28:09;9.02;;;4.55;;
54452;SDS011;40363;52.270;10.546;2022-11-15T10:30:41;7.15;;;3.50;;
54452;SDS011;40363;52.270;10.546;2022-11-15T10:33:13;7.40;;;4.63;;
54452;SDS011;40363;52.270;10.546;2022-11-15T10:35:49;8.75;;;4.45;;
54452;SDS011;40363;52.270;10.546;2022-11-15T10:38:51;6.55;;;3.67;;
54452;SDS011;40363;52.270;10.546;2022-11-15T10:41:21;5.70;;;3.38;;
54452;SDS011;40363;52.270;10.546;2022-11-15T10:44:01;9.85;;;3.75;;
54452;SDS011;40363;52.270;10.546;2022-11-15T10:46:34;5.15;;;3.00;;
54452;SDS011;40363;52.270;10.546;2022-11-15T10:49:11;8.02;;;4.18;;
54452;SDS011;40363;52.270;10.546;2022-11-15T10:51:41;6.22;;;4.00;;
54452;SDS011;40363;52.270;10.546;2022-11-15T10:54:11;6.85;;;3.70;;
54452;SDS011;40363;52.270;10.546;2022-11-15T10:56:40;5.22;;;3.05;;
54452;SDS011;40363;52.270;10.546;2022-11-15T10:59:14;8.18;;;3.45;;
54452;SDS011;40363;52.270;10.546;2022-11-15T11:01:47;7.50;;;3.78;;
54452;SDS011;40363;52.270;10.546;2022-11-15T11:04:14;5.85;;;3.22;;
54452;SDS011;40363;52.270;10.546;2022-11-15T11:06:49;6.72;;;3.17;;
54452;SDS011;40363;52.270;10.546;2022-11-15T11:09:27;4.75;;;2.75;;
54452;SDS011;40363;52.270;10.546;2022-11-15T11:11:56;6.65;;;3.42;;
54452;SDS011;40363;52.270;10.546;2022-11-15T11:14:24;4.07;;;3.40;;
54452;SDS011;40363;52.270;10.546;2022-11-15T11:16:53;5.20;;;2.83;;
54452;SDS011;40363;52.270;10.546;2022-11-15T11:19:36;4.30;;;2.80;;
54452;SDS011;40363;52.270;10.546;2022-11-15T11:22:15;6.30;;;2.92;;
54452;SDS011;40363;52.270;10.546;2022-11-15T11:24:47;4.10;;;2.60;;
54452;SDS011;40363;52.270;10.546;2022-11-15T11:30:00;6.80;;;2.67;;
54452;SDS011;40363;52.270;10.546;2022-11-15T11:32:40;5.82;;;2.60;;
54452;SDS011;40363;52.270;10.546;2022-11-15T11:35:17;4.60;;;2.90;;
54452;SDS011;40363;52.270;10.546;2022-11-15T11:37:51;4.93;;;3.15;;
54452;SDS011;40363;52.270;10.546;2022-11-15T11:40:23;5.72;;;3.13;;
54452;SDS011;40363;52.270;10.546;2022-11-15T11:45:31;7.60;;;3.05;;
54452;SDS011;40363;52.270;10.546;2022-11-15T11:48:19;13.23;;;3.47;;
54452;SDS011;40363;52.270;10.546;2022-11-15T11:51:07;6.10;;;2.63;;
54452;SDS011;40363;52.270;10.546;2022-11-15T11:53:45;7.22;;;3.00;;
54452;SDS011;40363;52.270;10.546;2022-11-15T11:56:18;5.40;;;3.28;;
54452;SDS011;40363;52.270;10.546;2022-11-15T11:58:52;5.60;;;3.58;;
54452;SDS011;40363;52.270;10.546;2022-11-15T12:01:22;6.28;;;3.45;;
54452;SDS011;40363;52.270;10.546;2022-11-15T12:03:52;6.03;;;3.72;;
54452;SDS011;40363;52.270;10.546;2022-11-15T12:06:24;8.60;;;3.50;;
54452;SDS011;40363;52.270;10.546;2022-11-15T12:09:00;4.88;;;3.00;;
54452;SDS011;40363;52.270;10.546;2022-11-15T12:11:32;6.15;;;3.47;;
54452;SDS011;40363;52.270;10.546;2022-11-15T12:14:05;6.15;;;4.30;;
54452;SDS011;40363;52.270;10.546;2022-11-15T12:16:39;7.55;;;3.75;;
54452;SDS011;40363;52.270;10.546;2022-11-15T12:19:08;6.13;;;2.58;;
54452;SDS011;40363;52.270;10.546;2022-11-15T12:21:36;7.07;;;3.08;;
54452;SDS011;40363;52.270;10.546;2022-11-15T12:24:12;5.70;;;3.45;;
54452;SDS011;40363;52.270;10.546;2022-11-15T12:26:45;6.50;;;3.40;;
54452;SDS011;40363;52.270;10.546;2022-11-15T12:29:16;6.03;;;3.40;;
54452;SDS011;40363;52.270;10.546;2022-11-15T12:31:50;6.05;;;3.10;;
54452;SDS011;40363;52.270;10.546;2022-11-15T12:34:35;16.00;;;3.67;;
54452;SDS011;40363;52.270;10.546;2022-11-15T12:40:26;5.88;;;3.63;;
54452;SDS011;40363;52.270;10.546;2022-11-15T12:46:13;6.18;;;3.20;;
54452;SDS011;40363;52.270;10.546;2022-11-15T12:48:50;5.68;;;3.28;;
54452;SDS011;40363;52.270;10.546;2022-11-15T12:51:20;7.25;;;3.45;;
54452;SDS011;40363;52.270;10.546;2022-11-15T12:53:48;3.70;;;2.70;;
54452;SDS011;40363;52.270;10.546;2022-11-15T12:56:23;10.88;;;3.33;;
54452;SDS011;40363;52.270;10.546;2022-11-15T12:58:51;6.00;;;2.78;;
54452;SDS011;40363;52.270;10.546;2022-11-15T13:04:25;6.13;;;3.33;;
54452;SDS011;40363;52.270;10.546;2022-11-15T13:06:53;4.40;;;2.92;;
54452;SDS011;40363;52.270;10.546;2022-11-15T13:15:35;6.80;;;3.05;;
54452;SDS011;40363;52.270;10.546;2022-11-15T13:18:26;5.70;;;2.85;;
54452;SDS011;40363;52.270;10.546;2022-11-15T13:20:55;5.85;;;2.97;;
54452;SDS011;40363;52.270;10.546;2022-11-15T13:23:22;6.00;;;2.78;;
54452;SDS011;40363;52.270;10.546;2022-11-15T13:28:38;7.00;;;3.03;;
54452;SDS011;40363;52.270;10.546;2022-11-15T13:31:22;4.68;;;2.85;;
54452;SDS011;40363;52.270;10.546;2022-11-15T13:33:51;6.07;;;3.25;;
54452;SDS011;40363;52.270;10.546;2022-11-15T13:36:20;8.90;;;2.95;;
54452;SDS011;40363;52.270;10.546;2022-11-15T13:38:56;3.85;;;3.25;;
54452;SDS011;40363;52.270;10.546;2022-11-15T13:41:25;4.05;;;2.70;;
54452;SDS011;40363;52.270;10.546;2022-11-15T13:43:55;7.10;;;3.30;;
54452;SDS011;40363;52.270;10.546;2022-11-15T13:46:23;6.65;;;3.30;;
54452;SDS011;40363;52.270;10.546;2022-11-15T13:48:52;4.55;;;3.10;;
54452;SDS011;40363;52.270;10.546;2022-11-15T13:51:22;6.03;;;3.10;;
54452;SDS011;40363;52.270;10.546;2022-11-15T13:53:55;6.78;;;3.22;;
54452;SDS011;40363;52.270;10.546;2022-11-15T13:56:24;5.47;;;2.78;;
54452;SDS011;40363;52.270;10.546;2022-11-15T13:58:54;4.03;;;3.00;;
54452;SDS011;40363;52.270;10.546;2022-11-15T14:01:21;14.00;;;6.20;;
54452;SDS011;40363;52.270;10.546;2022-11-15T14:03:50;5.93;;;3.47;;
54452;SDS011;40363;52.270;10.546;2022-11-15T14:06:21;4.90;;;2.78;;
54452;SDS011;40363;52.270;10.546;2022-11-15T14:11:58;7.28;;;2.80;;
54452;SDS011;40363;52.270;10.546;2022-11-15T14:14:27;5.50;;;3.10;;
54452;SDS011;40363;52.270;10.546;2022-11-15T14:16:55;5.40;;;2.72;;
54452;SDS011;40363;52.270;10.546;2022-11-15T14:19:35;5.80;;;2.97;;
54452;SDS011;40363;52.270;10.546;2022-11-15T14:22:07;5.20;;;2.80;;
54452;SDS011;40363;52.270;10.546;2022-11-15T14:24:35;4.97;;;2.72;;
54452;SDS011;40363;52.270;10.546;2022-11-15T14:27:15;6.85;;;3.28;;
54452;SDS011;40363;52.270;10.546;2022-11-15T14:29:45;4.90;;;2.50;;
54452;SDS011;40363;52.270;10.546;2022-11-15T14:32:13;5.93;;;3.40;;
54452;SDS011;40363;52.270;10.546;2022-11-15T14:34:41;6.20;;;3.30;;
54452;SDS011;40363;52.270;10.546;2022-11-15T14:37:11;5.40;;;3.00;;
54452;SDS011;40363;52.270;10.546;2022-11-15T14:39:46;3.38;;;2.50;;
54452;SDS011;40363;52.270;10.546;2022-11-15T14:42:13;5.80;;;3.05;;
54452;SDS011;40363;52.270;10.546;2022-11-15T14:44:39;4.32;;;2.70;;
54452;SDS011;40363;52.270;10.546;2022-11-15T14:47:07;4.65;;;2.92;;
54452;SDS011;40363;52.270;10.546;2022-11-15T14:49:34;8.25;;;3.13;;
54452;SDS011;40363;52.270;10.546;2022-11-15T14:52:01;6.97;;;4.13;;
54452;SDS011;40363;52.270;10.546;2022-11-15T14:54:28;6.30;;;3.97;;
54452;SDS011;40363;52.270;10.546;2022-11-15T14:56:54;5.45;;;3.08;;
54452;SDS011;40363;52.270;10.546;2022-11-15T14:59:21;4.15;;;3.17;;
54452;SDS011;40363;52.270;10.546;2022-11-15T15:01:47;8.02;;;3.05;;
54452;SDS011;40363;52.270;10.546;2022-11-15T15:04:15;4.40;;;3.20;;
54452;SDS011;40363;52.270;10.546;2022-11-15T15:06:42;8.70;;;3.80;;
54452;SDS011;40363;52.270;10.546;2022-11-15T15:09:08;7.60;;;3.72;;
54452;SDS011;40363;52.270;10.546;2022-11-15T15:11:35;8.95;;;3.63;;
54452;SDS011;40363;52.270;10.546;2022-11-15T15:14:02;8.02;;;3.80;;
54452;SDS011;40363;52.270;10.546;2022-11-15T15:16:28;7.53;;;3.78;;
54452;SDS011;40363;52.270;10.546;2022-11-15T15:18:55;9.20;;;3.95;;